Etusivu
METAR-TAF:

METAR-TAF

Lentoasemat :

Umeå, Ruotsi

Uumajan lentoasema

Leveyspiiri: 63-48N, Pituuspiiri: 020-17E, korkeus merenpinnasta: 7 m

Tämänhetkinen sää

Tämä raportti tehtiin 32 minuuttia sitten, kello 14.20 UTC
tyyntä
Lämpötila -8°C
Kosteus 92%
Ilmanpaine 986 hPa
Näkyvyys 10 km tai enemmän
Muutamia pilviä 1900 ft:n korkeudessa

METAR: ESNU 131420Z 00000KT 9999 FEW019 M08/M09 Q0986 R14/75//65

Aika: 15:52 (14:52 UTC)

Sääennuste

Tämä raportti tehtiin 22 minuuttia sitten, kello 14.30 UTC
Ennuste voimassa 13. päivästä klo 15 UTC - 13. päivään klo 24 UTC
Tuuli 3 kn lounaasta
Näkyvyys 10 km tai enemmän
Muutamia pilviä 2000 ft:n korkeudessa
Todennäköisyys 40%
13. päivästä klo 15 UTC - 13. päivään klo 16 UTC
Hajonneita pilviä 800 ft:n korkeudessa

TAF: ESNU 131430Z 1315/1324 23003KT 9999 FEW020 PROB40 1315/1316 BKN008

Säähavainnot ja -ennusteet yli 4000 lentoasemalta (METAR- ja TAF-raportit).

Käytössä olevat sääasemat on merkitty karttaan keltaisilla ja punaisilla pisteillä.

Aseta hiiri pisteen päälle nähdäksesi sääaseman nimen.

Klikkaa sitten nähdäksesi säähavainnot ja -ennusteet.

Kartan vaihtaminen: klikkaa mustalla rastilla varustettuja vihreitä pisteitä, niin voit zoomata sisään; viivalla varustettua vihreää pistettä, niin voit zoomata ulos tai vihreitä nuolia, niin pääset viereisille kartoille.


METAR-TAF: